sensor_id;sensor_type;location;lat;lon;timestamp;pressure;altitude;pressure_sealevel;temperature;humidity
52839;BME280;39219;53.678;9.856;2024-01-27T00:01:56;102755.66;;;5.42;81.53
52839;BME280;39219;53.678;9.856;2024-01-27T00:04:22;102755.59;;;5.32;81.49
52839;BME280;39219;53.678;9.856;2024-01-27T00:06:49;102759.03;;;5.23;81.00
52839;BME280;39219;53.678;9.856;2024-01-27T00:09:17;102768.69;;;5.23;81.46
52839;BME280;39219;53.678;9.856;2024-01-27T00:11:43;102758.97;;;5.17;81.72
52839;BME280;39219;53.678;9.856;2024-01-27T00:14:10;102758.19;;;5.26;81.63
52839;BME280;39219;53.678;9.856;2024-01-27T00:16:36;102761.72;;;5.29;81.52
52839;BME280;39219;53.678;9.856;2024-01-27T00:19:03;102774.91;;;5.26;81.65
52839;BME280;39219;53.678;9.856;2024-01-27T00:21:29;102766.09;;;5.24;81.62
52839;BME280;39219;53.678;9.856;2024-01-27T00:23:56;102762.56;;;5.24;81.75
52839;BME280;39219;53.678;9.856;2024-01-27T00:26:27;102764.31;;;5.25;81.71
52839;BME280;39219;53.678;9.856;2024-01-27T00:28:54;102766.97;;;5.26;81.60
52839;BME280;39219;53.678;9.856;2024-01-27T00:31:20;102763.44;;;5.24;81.52
52839;BME280;39219;53.678;9.856;2024-01-27T00:33:46;102759.88;;;5.21;81.54
52839;BME280;39219;53.678;9.856;2024-01-27T00:36:13;102757.22;;;5.19;81.63
52839;BME280;39219;53.678;9.856;2024-01-27T00:38:39;102745.81;;;5.20;81.60
52839;BME280;39219;53.678;9.856;2024-01-27T00:41:06;102766.88;;;5.17;81.75
52839;BME280;39219;53.678;9.856;2024-01-27T00:43:36;102763.34;;;5.17;81.83
52839;BME280;39219;53.678;9.856;2024-01-27T00:46:02;102762.56;;;5.24;81.95
52839;BME280;39219;53.678;9.856;2024-01-27T00:48:29;102766.94;;;5.23;82.00
52839;BME280;39219;53.678;9.856;2024-01-27T00:50:55;102761.66;;;5.25;82.13
52839;BME280;39219;53.678;9.856;2024-01-27T00:53:22;102770.47;;;5.27;81.92
52839;BME280;39219;53.678;9.856;2024-01-27T00:55:48;102775.75;;;5.22;82.11
52839;BME280;39219;53.678;9.856;2024-01-27T00:58:15;102774.84;;;5.25;82.03
52839;BME280;39219;53.678;9.856;2024-01-27T01:00:43;102781.09;;;5.31;81.95
52839;BME280;39219;53.678;9.856;2024-01-27T01:03:10;102787.16;;;5.23;82.17
52839;BME280;39219;53.678;9.856;2024-01-27T01:05:36;102793.31;;;5.23;82.09
52839;BME280;39219;53.678;9.856;2024-01-27T01:08:03;102786.31;;;5.24;82.38
52839;BME280;39219;53.678;9.856;2024-01-27T01:10:31;102792.41;;;5.20;82.20
52839;BME280;39219;53.678;9.856;2024-01-27T01:12:58;102783.72;;;5.28;82.42
52839;BME280;39219;53.678;9.856;2024-01-27T01:15:24;102789.84;;;5.29;82.42
52839;BME280;39219;53.678;9.856;2024-01-27T01:17:53;102800.34;;;5.21;82.32
52839;BME280;39219;53.678;9.856;2024-01-27T01:20:19;102789.00;;;5.28;82.52
52839;BME280;39219;53.678;9.856;2024-01-27T01:22:46;102790.72;;;5.26;82.80
52839;BME280;39219;53.678;9.856;2024-01-27T01:25:12;102789.00;;;5.34;82.60
52839;BME280;39219;53.678;9.856;2024-01-27T01:27:38;102797.88;;;5.39;82.50
52839;BME280;39219;53.678;9.856;2024-01-27T01:30:06;102809.25;;;5.34;82.71
52839;BME280;39219;53.678;9.856;2024-01-27T01:32:32;102806.59;;;5.32;82.78
52839;BME280;39219;53.678;9.856;2024-01-27T01:35:00;102810.16;;;5.37;82.57
52839;BME280;39219;53.678;9.856;2024-01-27T01:37:26;102820.69;;;5.34;82.80
52839;BME280;39219;53.678;9.856;2024-01-27T01:39:53;102822.47;;;5.35;83.04
52839;BME280;39219;53.678;9.856;2024-01-27T01:42:19;102826.91;;;5.38;82.58
52839;BME280;39219;53.678;9.856;2024-01-27T01:44:50;102821.66;;;5.44;82.67
52839;BME280;39219;53.678;9.856;2024-01-27T01:47:16;102833.13;;;5.46;82.71
52839;BME280;39219;53.678;9.856;2024-01-27T01:49:43;102850.66;;;5.42;82.85
52839;BME280;39219;53.678;9.856;2024-01-27T01:52:11;102852.50;;;5.50;82.38
52839;BME280;39219;53.678;9.856;2024-01-27T01:54:37;102856.91;;;5.51;82.37
52839;BME280;39219;53.678;9.856;2024-01-27T01:57:06;102851.63;;;5.51;82.74
52839;BME280;39219;53.678;9.856;2024-01-27T01:59:33;102851.63;;;5.49;82.49
52839;BME280;39219;53.678;9.856;2024-01-27T02:02:05;102852.34;;;5.34;82.88
52839;BME280;39219;53.678;9.856;2024-01-27T02:04:39;102864.75;;;5.44;82.61
52839;BME280;39219;53.678;9.856;2024-01-27T02:07:05;102863.91;;;5.47;82.54
52839;BME280;39219;53.678;9.856;2024-01-27T02:09:33;102872.66;;;5.41;82.54
52839;BME280;39219;53.678;9.856;2024-01-27T02:12:00;102888.50;;;5.43;82.87
52839;BME280;39219;53.678;9.856;2024-01-27T02:14:27;102881.41;;;5.37;82.96
52839;BME280;39219;53.678;9.856;2024-01-27T02:16:53;102884.00;;;5.33;82.75
52839;BME280;39219;53.678;9.856;2024-01-27T02:19:20;102883.09;;;5.29;82.82
52839;BME280;39219;53.678;9.856;2024-01-27T02:21:46;102896.28;;;5.28;82.87
52839;BME280;39219;53.678;9.856;2024-01-27T02:24:14;102900.56;;;5.18;83.12
52839;BME280;39219;53.678;9.856;2024-01-27T02:26:41;102899.66;;;5.18;83.19
52839;BME280;39219;53.678;9.856;2024-01-27T02:29:07;102900.56;;;5.18;83.33
52839;BME280;39219;53.678;9.856;2024-01-27T02:31:34;102897.06;;;5.21;83.38
52839;BME280;39219;53.678;9.856;2024-01-27T02:34:00;102889.19;;;5.27;83.12
52839;BME280;39219;53.678;9.856;2024-01-27T02:36:27;102893.72;;;5.35;83.19
52839;BME280;39219;53.678;9.856;2024-01-27T02:38:53;102905.94;;;5.27;83.26
52839;BME280;39219;53.678;9.856;2024-01-27T02:41:21;102905.84;;;5.21;83.42
52839;BME280;39219;53.678;9.856;2024-01-27T02:43:47;102907.59;;;5.21;83.57
52839;BME280;39219;53.678;9.856;2024-01-27T02:46:14;102908.56;;;5.26;83.71
52839;BME280;39219;53.678;9.856;2024-01-27T02:48:41;102905.94;;;5.29;83.68
52839;BME280;39219;53.678;9.856;2024-01-27T02:51:07;102904.13;;;5.23;83.48
52839;BME280;39219;53.678;9.856;2024-01-27T02:53:34;102908.50;;;5.21;83.44
52839;BME280;39219;53.678;9.856;2024-01-27T02:56:01;102911.13;;;5.20;83.53
52839;BME280;39219;53.678;9.856;2024-01-27T02:58:28;102911.97;;;5.16;83.79
52839;BME280;39219;53.678;9.856;2024-01-27T03:00:55;102925.13;;;5.13;83.81
52839;BME280;39219;53.678;9.856;2024-01-27T03:03:21;102926.81;;;5.09;84.00
52839;BME280;39219;53.678;9.856;2024-01-27T03:05:48;102928.63;;;5.12;84.02
52839;BME280;39219;53.678;9.856;2024-01-27T03:08:14;102925.13;;;5.14;83.98
52839;BME280;39219;53.678;9.856;2024-01-27T03:10:41;102917.22;;;5.13;84.02
52839;BME280;39219;53.678;9.856;2024-01-27T03:13:07;102923.31;;;5.09;84.13
52839;BME280;39219;53.678;9.856;2024-01-27T03:15:35;102923.28;;;5.07;84.03
52839;BME280;39219;53.678;9.856;2024-01-27T03:18:02;102923.25;;;5.03;84.35
52839;BME280;39219;53.678;9.856;2024-01-27T03:20:29;102919.72;;;5.02;84.36
52839;BME280;39219;53.678;9.856;2024-01-27T03:22:56;102917.97;;;5.03;84.32
52839;BME280;39219;53.678;9.856;2024-01-27T03:25:22;102917.88;;;4.95;84.42
52839;BME280;39219;53.678;9.856;2024-01-27T03:27:50;102924.88;;;4.93;84.73
52839;BME280;39219;53.678;9.856;2024-01-27T03:30:17;102928.38;;;4.92;84.70
52839;BME280;39219;53.678;9.856;2024-01-27T03:32:45;102923.16;;;4.95;84.56
52839;BME280;39219;53.678;9.856;2024-01-27T03:35:11;102925.72;;;4.91;84.55
52839;BME280;39219;53.678;9.856;2024-01-27T03:37:38;102935.38;;;4.90;84.79
52839;BME280;39219;53.678;9.856;2024-01-27T03:40:05;102933.56;;;4.88;84.53
52839;BME280;39219;53.678;9.856;2024-01-27T03:42:32;102935.22;;;4.78;84.90
52839;BME280;39219;53.678;9.856;2024-01-27T03:44:58;102937.00;;;4.81;85.14
52839;BME280;39219;53.678;9.856;2024-01-27T03:47:25;102944.94;;;4.82;84.99
52839;BME280;39219;53.678;9.856;2024-01-27T03:49:53;102947.56;;;4.82;84.88
52839;BME280;39219;53.678;9.856;2024-01-27T03:52:19;102948.34;;;4.74;85.33
52839;BME280;39219;53.678;9.856;2024-01-27T03:54:46;102943.94;;;4.74;85.26
52839;BME280;39219;53.678;9.856;2024-01-27T03:57:12;102950.00;;;4.66;85.33
52839;BME280;39219;53.678;9.856;2024-01-27T03:59:40;102952.44;;;4.52;85.28
52839;BME280;39219;53.678;9.856;2024-01-27T04:02:06;102951.53;;;4.50;85.56
52839;BME280;39219;53.678;9.856;2024-01-27T04:04:33;102958.50;;;4.46;85.53
52839;BME280;39219;53.678;9.856;2024-01-27T04:07:00;102956.63;;;4.41;85.67
52839;BME280;39219;53.678;9.856;2024-01-27T04:09:27;102958.41;;;4.40;85.94
52839;BME280;39219;53.678;9.856;2024-01-27T04:11:54;102959.34;;;4.44;86.16
52839;BME280;39219;53.678;9.856;2024-01-27T04:14:20;102961.00;;;4.39;85.97
52839;BME280;39219;53.678;9.856;2024-01-27T04:16:47;102961.84;;;4.36;85.99
52839;BME280;39219;53.678;9.856;2024-01-27T04:19:13;102959.13;;;4.32;86.26
52839;BME280;39219;53.678;9.856;2024-01-27T04:21:40;102962.56;;;4.26;86.03
52839;BME280;39219;53.678;9.856;2024-01-27T04:24:09;102964.06;;;4.11;86.27
52839;BME280;39219;53.678;9.856;2024-01-27T04:26:35;102965.78;;;4.09;86.60
52839;BME280;39219;53.678;9.856;2024-01-27T04:29:02;102977.16;;;4.08;86.75
52839;BME280;39219;53.678;9.856;2024-01-27T04:31:28;102979.56;;;3.93;86.88
52839;BME280;39219;53.678;9.856;2024-01-27T04:33:56;102984.69;;;3.85;87.33
52839;BME280;39219;53.678;9.856;2024-01-27T04:36:27;102979.34;;;3.81;87.22
52839;BME280;39219;53.678;9.856;2024-01-27T04:38:56;102988.13;;;3.81;87.31
52839;BME280;39219;53.678;9.856;2024-01-27T04:41:24;102980.34;;;3.87;87.97
52839;BME280;39219;53.678;9.856;2024-01-27T04:43:50;102979.31;;;3.79;87.88
52839;BME280;39219;53.678;9.856;2024-01-27T04:46:18;102986.28;;;3.76;87.89
52839;BME280;39219;53.678;9.856;2024-01-27T04:48:45;102989.81;;;3.78;87.98
52839;BME280;39219;53.678;9.856;2024-01-27T04:51:12;102993.13;;;3.68;88.05
52839;BME280;39219;53.678;9.856;2024-01-27T04:53:38;102991.56;;;3.79;88.57
52839;BME280;39219;53.678;9.856;2024-01-27T04:56:05;102983.78;;;3.83;88.47
52839;BME280;39219;53.678;9.856;2024-01-27T04:58:34;102989.91;;;3.82;88.60
52839;BME280;39219;53.678;9.856;2024-01-27T05:01:01;102992.50;;;3.81;88.57
52839;BME280;39219;53.678;9.856;2024-01-27T05:03:28;102992.47;;;3.79;88.80
52839;BME280;39219;53.678;9.856;2024-01-27T05:05:54;103000.28;;;3.75;88.76
52839;BME280;39219;53.678;9.856;2024-01-27T05:08:21;103001.81;;;3.63;88.29
52839;BME280;39219;53.678;9.856;2024-01-27T05:10:47;102997.56;;;3.69;88.90
52839;BME280;39219;53.678;9.856;2024-01-27T05:13:13;103004.47;;;3.65;88.57
52839;BME280;39219;53.678;9.856;2024-01-27T05:15:41;103000.75;;;3.52;88.70
52839;BME280;39219;53.678;9.856;2024-01-27T05:18:08;103004.09;;;3.45;88.88
52839;BME280;39219;53.678;9.856;2024-01-27T05:20:35;103011.75;;;3.33;88.90
52839;BME280;39219;53.678;9.856;2024-01-27T05:23:02;103006.28;;;3.24;89.12
52839;BME280;39219;53.678;9.856;2024-01-27T05:25:29;103013.09;;;3.13;89.03
52839;BME280;39219;53.678;9.856;2024-01-27T05:27:55;103010.22;;;3.03;88.93
52839;BME280;39219;53.678;9.856;2024-01-27T05:30:21;103007.44;;;2.95;89.30
52839;BME280;39219;53.678;9.856;2024-01-27T05:32:49;103010.31;;;3.06;89.41
52839;BME280;39219;53.678;9.856;2024-01-27T05:35:16;103011.00;;;2.99;89.37
52839;BME280;39219;53.678;9.856;2024-01-27T05:37:42;103011.78;;;2.95;89.89
52839;BME280;39219;53.678;9.856;2024-01-27T05:40:09;103012.50;;;2.86;89.80
52839;BME280;39219;53.678;9.856;2024-01-27T05:42:36;103016.94;;;2.89;90.18
52839;BME280;39219;53.678;9.856;2024-01-27T05:45:03;103024.75;;;2.87;90.27
52839;BME280;39219;53.678;9.856;2024-01-27T05:47:29;103022.72;;;2.74;90.19
52839;BME280;39219;53.678;9.856;2024-01-27T05:49:57;103029.72;;;2.75;90.42
52839;BME280;39219;53.678;9.856;2024-01-27T05:52:23;103028.16;;;2.82;90.81
52839;BME280;39219;53.678;9.856;2024-01-27T05:54:51;103029.50;;;2.64;90.57
52839;BME280;39219;53.678;9.856;2024-01-27T05:57:18;103036.84;;;2.79;90.83
52839;BME280;39219;53.678;9.856;2024-01-27T05:59:44;103035.91;;;2.77;90.90
52839;BME280;39219;53.678;9.856;2024-01-27T06:02:11;103039.25;;;2.70;91.54
52839;BME280;39219;53.678;9.856;2024-01-27T06:04:37;103041.88;;;2.68;91.07
52839;BME280;39219;53.678;9.856;2024-01-27T06:07:05;103034.63;;;2.58;91.12
52839;BME280;39219;53.678;9.856;2024-01-27T06:09:32;103044.13;;;2.53;91.05
52839;BME280;39219;53.678;9.856;2024-01-27T06:11:59;103050.22;;;2.52;91.26
52839;BME280;39219;53.678;9.856;2024-01-27T06:14:26;103054.56;;;2.52;91.33
52839;BME280;39219;53.678;9.856;2024-01-27T06:16:52;103058.97;;;2.51;91.23
52839;BME280;39219;53.678;9.856;2024-01-27T06:19:18;103066.84;;;2.51;91.57
52839;BME280;39219;53.678;9.856;2024-01-27T06:21:45;103069.53;;;2.54;91.65
52839;BME280;39219;53.678;9.856;2024-01-27T06:24:13;103073.72;;;2.46;91.57
52839;BME280;39219;53.678;9.856;2024-01-27T06:26:39;103070.28;;;2.49;91.54
52839;BME280;39219;53.678;9.856;2024-01-27T06:29:05;103068.59;;;2.52;91.91
52839;BME280;39219;53.678;9.856;2024-01-27T06:31:31;103069.66;;;2.59;91.86
52839;BME280;39219;53.678;9.856;2024-01-27T06:33:58;103079.25;;;2.57;91.76
52839;BME280;39219;53.678;9.856;2024-01-27T06:36:24;103079.88;;;2.48;91.74
52839;BME280;39219;53.678;9.856;2024-01-27T06:38:52;103079.00;;;2.48;92.04
52839;BME280;39219;53.678;9.856;2024-01-27T06:41:20;103085.06;;;2.45;92.05
52839;BME280;39219;53.678;9.856;2024-01-27T06:43:47;103086.78;;;2.43;91.92
52839;BME280;39219;53.678;9.856;2024-01-27T06:46:13;103096.34;;;2.41;92.21
52839;BME280;39219;53.678;9.856;2024-01-27T06:48:40;103098.06;;;2.39;92.21
52839;BME280;39219;53.678;9.856;2024-01-27T06:51:06;103088.16;;;2.29;92.14
52839;BME280;39219;53.678;9.856;2024-01-27T06:53:32;103101.31;;;2.31;92.17
52839;BME280;39219;53.678;9.856;2024-01-27T06:55:59;103102.34;;;2.36;92.48
52839;BME280;39219;53.678;9.856;2024-01-27T06:58:27;103097.16;;;2.39;92.65
52839;BME280;39219;53.678;9.856;2024-01-27T07:00:53;103109.97;;;2.27;92.27
52839;BME280;39219;53.678;9.856;2024-01-27T07:03:20;103110.16;;;2.34;92.45
52839;BME280;39219;53.678;9.856;2024-01-27T07:05:46;103117.09;;;2.32;92.29
52839;BME280;39219;53.678;9.856;2024-01-27T07:08:13;103115.94;;;2.21;92.30
52839;BME280;39219;53.678;9.856;2024-01-27T07:10:39;103125.75;;;2.28;92.48
52839;BME280;39219;53.678;9.856;2024-01-27T07:13:06;103127.53;;;2.29;92.40
52839;BME280;39219;53.678;9.856;2024-01-27T07:15:33;103132.75;;;2.28;92.42
52839;BME280;39219;53.678;9.856;2024-01-27T07:18:03;103129.97;;;2.22;92.41
52839;BME280;39219;53.678;9.856;2024-01-27T07:20:29;103140.81;;;2.34;92.65
52839;BME280;39219;53.678;9.856;2024-01-27T07:22:56;103140.88;;;2.37;92.54
52839;BME280;39219;53.678;9.856;2024-01-27T07:25:23;103139.91;;;2.33;92.77
52839;BME280;39219;53.678;9.856;2024-01-27T07:27:50;103147.13;;;2.42;92.67
52839;BME280;39219;53.678;9.856;2024-01-27T07:30:16;103148.03;;;2.44;92.99
52839;BME280;39219;53.678;9.856;2024-01-27T07:32:44;103151.84;;;2.53;92.99
52839;BME280;39219;53.678;9.856;2024-01-27T07:35:11;103166.91;;;2.62;92.97
52839;BME280;39219;53.678;9.856;2024-01-27T07:37:37;103148.72;;;2.69;93.06
52839;BME280;39219;53.678;9.856;2024-01-27T07:40:05;103162.91;;;2.76;93.03
52839;BME280;39219;53.678;9.856;2024-01-27T07:42:32;103156.09;;;2.84;93.05
52839;BME280;39219;53.678;9.856;2024-01-27T07:44:58;103150.69;;;2.78;92.65
52839;BME280;39219;53.678;9.856;2024-01-27T07:47:25;103164.66;;;2.77;92.63
52839;BME280;39219;53.678;9.856;2024-01-27T07:49:52;103172.44;;;2.71;92.49
52839;BME280;39219;53.678;9.856;2024-01-27T07:52:19;103171.75;;;2.80;92.63
52839;BME280;39219;53.678;9.856;2024-01-27T07:54:46;103174.56;;;2.87;92.31
52839;BME280;39219;53.678;9.856;2024-01-27T07:57:12;103179.16;;;2.96;92.28
52839;BME280;39219;53.678;9.856;2024-01-27T07:59:39;103179.78;;;3.20;92.54
52839;BME280;39219;53.678;9.856;2024-01-27T08:02:05;103182.91;;;3.42;92.59
52839;BME280;39219;53.678;9.856;2024-01-27T08:04:32;103181.28;;;3.47;91.66
52839;BME280;39219;53.678;9.856;2024-01-27T08:07:00;103173.00;;;3.70;91.41
52839;BME280;39219;53.678;9.856;2024-01-27T08:09:31;103171.25;;;3.69;90.68
52839;BME280;39219;53.678;9.856;2024-01-27T08:11:58;103170.34;;;3.68;89.69
52839;BME280;39219;53.678;9.856;2024-01-27T08:14:24;103160.09;;;3.82;89.21
52839;BME280;39219;53.678;9.856;2024-01-27T08:16:51;103173.72;;;4.04;88.30
52839;BME280;39219;53.678;9.856;2024-01-27T08:19:17;103181.31;;;4.31;87.63
52839;BME280;39219;53.678;9.856;2024-01-27T08:21:45;103183.31;;;4.45;86.41
52839;BME280;39219;53.678;9.856;2024-01-27T08:24:13;103187.22;;;4.66;85.60
52839;BME280;39219;53.678;9.856;2024-01-27T08:26:39;103185.84;;;4.87;84.55
52839;BME280;39219;53.678;9.856;2024-01-27T08:29:07;103171.28;;;5.10;83.31
52839;BME280;39219;53.678;9.856;2024-01-27T08:31:34;103174.88;;;5.17;82.15
52839;BME280;39219;53.678;9.856;2024-01-27T08:34:00;103173.34;;;5.31;81.66
52839;BME280;39219;53.678;9.856;2024-01-27T08:36:27;103177.97;;;5.47;81.08
52839;BME280;39219;53.678;9.856;2024-01-27T08:38:53;103168.63;;;5.72;80.02
52839;BME280;39219;53.678;9.856;2024-01-27T08:41:22;103178.25;;;5.65;80.10
52839;BME280;39219;53.678;9.856;2024-01-27T08:43:49;103173.06;;;5.73;79.46
52839;BME280;39219;53.678;9.856;2024-01-27T08:46:15;103161.41;;;5.56;78.71
52839;BME280;39219;53.678;9.856;2024-01-27T08:48:44;103168.59;;;5.69;78.91
52839;BME280;39219;53.678;9.856;2024-01-27T08:51:11;103174.75;;;5.68;78.46
52839;BME280;39219;53.678;9.856;2024-01-27T08:53:38;103186.94;;;5.58;78.81
52839;BME280;39219;53.678;9.856;2024-01-27T08:56:04;103191.41;;;5.64;78.64
52839;BME280;39219;53.678;9.856;2024-01-27T08:58:32;103179.09;;;5.63;78.29
52839;BME280;39219;53.678;9.856;2024-01-27T09:00:59;103197.25;;;5.40;78.84
52839;BME280;39219;53.678;9.856;2024-01-27T09:03:30;103191.56;;;5.74;78.88
52839;BME280;39219;53.678;9.856;2024-01-27T09:05:57;103190.38;;;5.53;78.36
52839;BME280;39219;53.678;9.856;2024-01-27T09:08:23;103198.41;;;5.60;78.79
52839;BME280;39219;53.678;9.856;2024-01-27T09:10:49;103201.66;;;5.42;78.97
52839;BME280;39219;53.678;9.856;2024-01-27T09:13:16;103189.72;;;5.67;78.94
52839;BME280;39219;53.678;9.856;2024-01-27T09:15:44;103214.19;;;5.56;78.98
52839;BME280;39219;53.678;9.856;2024-01-27T09:18:11;103222.31;;;5.69;79.32
52839;BME280;39219;53.678;9.856;2024-01-27T09:20:37;103206.94;;;6.02;78.50
52839;BME280;39219;53.678;9.856;2024-01-27T09:23:04;103215.88;;;6.13;77.63
52839;BME280;39219;53.678;9.856;2024-01-27T09:25:30;103202.53;;;6.01;77.41
52839;BME280;39219;53.678;9.856;2024-01-27T09:27:57;103205.81;;;5.84;77.46
52839;BME280;39219;53.678;9.856;2024-01-27T09:30:26;103220.00;;;5.90;78.16
52839;BME280;39219;53.678;9.856;2024-01-27T09:32:54;103219.34;;;6.06;77.58
52839;BME280;39219;53.678;9.856;2024-01-27T09:35:20;103215.72;;;6.01;77.58
52839;BME280;39219;53.678;9.856;2024-01-27T09:37:46;103217.47;;;5.99;77.60
52839;BME280;39219;53.678;9.856;2024-01-27T09:40:13;103224.63;;;6.08;77.44
52839;BME280;39219;53.678;9.856;2024-01-27T09:42:47;103224.13;;;6.39;77.01
52839;BME280;39219;53.678;9.856;2024-01-27T09:45:15;103221.78;;;6.68;76.12
52839;BME280;39219;53.678;9.856;2024-01-27T09:47:42;103222.69;;;6.71;75.04
52839;BME280;39219;53.678;9.856;2024-01-27T09:50:11;103207.56;;;6.55;75.69
52839;BME280;39219;53.678;9.856;2024-01-27T09:52:37;103210.09;;;6.48;75.19
52839;BME280;39219;53.678;9.856;2024-01-27T09:55:04;103217.53;;;6.82;75.70
52839;BME280;39219;53.678;9.856;2024-01-27T09:57:31;103216.63;;;6.80;74.28
52839;BME280;39219;53.678;9.856;2024-01-27T09:59:58;103216.69;;;6.84;74.93
52839;BME280;39219;53.678;9.856;2024-01-27T10:02:26;103219.06;;;6.59;74.78
52839;BME280;39219;53.678;9.856;2024-01-27T10:04:53;103219.19;;;6.72;75.32
52839;BME280;39219;53.678;9.856;2024-01-27T10:07:21;103237.13;;;7.02;74.89
52839;BME280;39219;53.678;9.856;2024-01-27T10:09:49;103242.53;;;7.17;74.32
52839;BME280;39219;53.678;9.856;2024-01-27T10:12:16;103238.25;;;7.31;73.64
52839;BME280;39219;53.678;9.856;2024-01-27T10:14:44;103243.50;;;7.25;73.22
52839;BME280;39219;53.678;9.856;2024-01-27T10:17:20;103240.84;;;7.27;73.38
52839;BME280;39219;53.678;9.856;2024-01-27T10:19:47;103228.47;;;7.21;73.19
52839;BME280;39219;53.678;9.856;2024-01-27T10:22:13;103237.50;;;7.52;73.48
52839;BME280;39219;53.678;9.856;2024-01-27T10:24:41;103227.03;;;7.68;72.68
52839;BME280;39219;53.678;9.856;2024-01-27T10:27:09;103234.00;;;7.56;71.77
52839;BME280;39219;53.678;9.856;2024-01-27T10:29:36;103227.91;;;7.69;72.16
52839;BME280;39219;53.678;9.856;2024-01-27T10:32:08;103240.25;;;7.67;71.90
52839;BME280;39219;53.678;9.856;2024-01-27T10:34:34;103234.06;;;7.62;72.02
52839;BME280;39219;53.678;9.856;2024-01-27T10:37:00;103226.22;;;7.80;71.61
52839;BME280;39219;53.678;9.856;2024-01-27T10:39:27;103227.06;;;7.74;71.08
52839;BME280;39219;53.678;9.856;2024-01-27T10:41:55;103227.09;;;7.79;71.14
52839;BME280;39219;53.678;9.856;2024-01-27T10:44:21;103228.91;;;7.90;70.88
52839;BME280;39219;53.678;9.856;2024-01-27T10:46:48;103231.53;;;7.80;70.52
52839;BME280;39219;53.678;9.856;2024-01-27T10:49:16;103236.03;;;8.00;70.87
52839;BME280;39219;53.678;9.856;2024-01-27T10:51:45;103246.81;;;8.26;70.63
52839;BME280;39219;53.678;9.856;2024-01-27T10:54:14;103243.31;;;8.36;70.19
52839;BME280;39219;53.678;9.856;2024-01-27T10:56:42;103225.63;;;8.32;69.43
52839;BME280;39219;53.678;9.856;2024-01-27T10:59:11;103230.84;;;8.19;69.62
52839;BME280;39219;53.678;9.856;2024-01-27T11:01:41;103224.75;;;8.36;69.84
52839;BME280;39219;53.678;9.856;2024-01-27T11:04:08;103231.81;;;8.34;70.40
52839;BME280;39219;53.678;9.856;2024-01-27T11:06:38;103231.88;;;8.64;70.09
52839;BME280;39219;53.678;9.856;2024-01-27T11:09:05;103238.13;;;8.81;69.01
52839;BME280;39219;53.678;9.856;2024-01-27T11:11:34;103236.34;;;8.86;68.29
52839;BME280;39219;53.678;9.856;2024-01-27T11:14:01;103242.50;;;8.64;69.13
52839;BME280;39219;53.678;9.856;2024-01-27T11:16:29;103236.22;;;8.34;69.42
52839;BME280;39219;53.678;9.856;2024-01-27T11:18:56;103240.63;;;8.29;70.22
52839;BME280;39219;53.678;9.856;2024-01-27T11:21:22;103241.53;;;8.41;70.24
52839;BME280;39219;53.678;9.856;2024-01-27T11:23:49;103254.84;;;8.53;69.79
52839;BME280;39219;53.678;9.856;2024-01-27T11:26:18;103253.13;;;8.66;68.58
52839;BME280;39219;53.678;9.856;2024-01-27T11:31:16;103242.56;;;8.97;68.09
52839;BME280;39219;53.678;9.856;2024-01-27T11:33:47;103250.56;;;9.13;67.71
52839;BME280;39219;53.678;9.856;2024-01-27T11:36:19;103254.97;;;9.17;66.74
52839;BME280;39219;53.678;9.856;2024-01-27T11:38:53;103262.06;;;9.22;65.99
52839;BME280;39219;53.678;9.856;2024-01-27T11:41:25;103263.81;;;9.10;66.01
52839;BME280;39219;53.678;9.856;2024-01-27T11:43:52;103269.13;;;9.07;66.58
52839;BME280;39219;53.678;9.856;2024-01-27T11:46:19;103270.84;;;8.95;66.10
52839;BME280;39219;53.678;9.856;2024-01-27T11:48:48;103265.53;;;8.79;67.25
52839;BME280;39219;53.678;9.856;2024-01-27T11:51:15;103277.84;;;8.53;67.54
52839;BME280;39219;53.678;9.856;2024-01-27T11:53:41;103274.31;;;8.58;68.62
52839;BME280;39219;53.678;9.856;2024-01-27T11:56:10;103276.09;;;8.59;69.02
52839;BME280;39219;53.678;9.856;2024-01-27T11:58:37;103276.13;;;8.65;68.67
52839;BME280;39219;53.678;9.856;2024-01-27T12:01:03;103277.91;;;8.68;67.76
52839;BME280;39219;53.678;9.856;2024-01-27T12:03:30;103278.75;;;8.62;67.72
52839;BME280;39219;53.678;9.856;2024-01-27T12:05:57;103277.91;;;8.69;67.97
52839;BME280;39219;53.678;9.856;2024-01-27T12:08:24;103278.69;;;8.43;68.09
52839;BME280;39219;53.678;9.856;2024-01-27T12:10:51;103290.88;;;8.09;69.72
52839;BME280;39219;53.678;9.856;2024-01-27T12:13:18;103279.41;;;8.15;70.30
52839;BME280;39219;53.678;9.856;2024-01-27T12:15:44;103284.75;;;8.19;70.49
52839;BME280;39219;53.678;9.856;2024-01-27T12:18:11;103280.31;;;8.18;70.50
52839;BME280;39219;53.678;9.856;2024-01-27T12:20:38;103285.66;;;8.24;70.11
52839;BME280;39219;53.678;9.856;2024-01-27T12:23:06;103274.22;;;8.31;70.03
52839;BME280;39219;53.678;9.856;2024-01-27T12:25:33;103281.97;;;7.96;71.13
52839;BME280;39219;53.678;9.856;2024-01-27T12:28:02;103277.56;;;8.00;70.91
52839;BME280;39219;53.678;9.856;2024-01-27T12:30:28;103293.41;;;7.88;71.48
52839;BME280;39219;53.678;9.856;2024-01-27T12:32:55;103287.28;;;8.01;70.82
52839;BME280;39219;53.678;9.856;2024-01-27T12:35:23;103281.19;;;8.22;70.66
52839;BME280;39219;53.678;9.856;2024-01-27T12:37:50;103290.19;;;8.42;70.82
52839;BME280;39219;53.678;9.856;2024-01-27T12:40:18;103273.25;;;8.20;70.29
52839;BME280;39219;53.678;9.856;2024-01-27T12:42:45;103272.31;;;8.12;70.52
52839;BME280;39219;53.678;9.856;2024-01-27T12:45:12;103273.09;;;7.96;70.70
52839;BME280;39219;53.678;9.856;2024-01-27T12:47:39;103261.44;;;7.67;72.34
52839;BME280;39219;53.678;9.856;2024-01-27T12:50:06;103270.34;;;7.76;72.73
52839;BME280;39219;53.678;9.856;2024-01-27T12:52:32;103267.75;;;7.84;72.17
52839;BME280;39219;53.678;9.856;2024-01-27T12:54:59;103262.53;;;8.00;72.11
52839;BME280;39219;53.678;9.856;2024-01-27T12:57:27;103261.72;;;8.09;71.98
52839;BME280;39219;53.678;9.856;2024-01-27T12:59:54;103261.69;;;8.06;71.30
52839;BME280;39219;53.678;9.856;2024-01-27T13:02:20;103233.44;;;8.03;71.16